Time,TemperatureF,DewpointF,PressureIn,WindDirection,WindDirectionDegrees,WindSpeedMPH,WindSpeedGustMPH,Humidity,HourlyPrecipIn,Conditions,Clouds,dailyrainin,SoftwareType,DateUTC
2013-05-05 00:00:00,45.6,39.8,30.22,NNE,16,0.0,0.0,80,0.00,,,0.00,LWC V2.11 B50,2013-05-05 04:00:00,
2013-05-05 00:01:00,45.6,39.8,30.23,NNE,15,0.0,0.0,80,0.00,,,0.00,LWC V2.11 B50,2013-05-05 04:01:00,
2013-05-05 00:06:00,45.5,39.7,30.23,NNE,16,0.0,0.0,80,0.00,,,0.00,LWC V2.11 B50,2013-05-05 04:06:00,
2013-05-05 00:11:00,45.3,39.8,30.23,NNE,16,0.0,0.0,81,0.00,,,0.00,LWC V2.11 B50,2013-05-05 04:11:00,
2013-05-05 00:16:00,45.1,39.6,30.23,NNE,16,0.0,0.0,81,0.00,,,0.00,LWC V2.11 B50,2013-05-05 04:16:00,
2013-05-05 00:21:00,44.9,39.7,30.23,NNE,16,0.0,0.0,82,0.00,,,0.00,LWC V2.11 B50,2013-05-05 04:21:00,
2013-05-05 00:26:00,44.8,40.0,30.23,NNE,16,0.0,0.0,83,0.00,,,0.00,LWC V2.11 B50,2013-05-05 04:26:00,
2013-05-05 00:31:00,44.7,39.9,30.23,NNE,15,0.0,0.0,83,0.00,,,0.00,LWC V2.11 B50,2013-05-05 04:31:00,
2013-05-05 00:36:00,44.6,40.1,30.23,NNE,16,0.0,0.0,84,0.00,,,0.00,LWC V2.11 B50,2013-05-05 04:36:00,
2013-05-05 00:41:00,44.4,39.9,30.23,NNE,16,0.0,0.0,84,0.00,,,0.00,LWC V2.11 B50,2013-05-05 04:41:00,
2013-05-05 00:46:00,44.2,39.7,30.23,NNE,16,0.0,0.0,84,0.00,,,0.00,LWC V2.11 B50,2013-05-05 04:46:00,
2013-05-05 00:51:00,44.1,39.9,30.23,NNE,15,0.0,0.0,85,0.00,,,0.00,LWC V2.11 B50,2013-05-05 04:51:00,
2013-05-05 00:56:00,43.9,39.7,30.23,NNE,16,0.0,0.0,85,0.00,,,0.00,LWC V2.11 B50,2013-05-05 04:56:00,
2013-05-05 01:01:00,43.7,39.8,30.23,NNE,16,0.0,0.0,86,0.00,,,0.00,LWC V2.11 B50,2013-05-05 05:01:00,
2013-05-05 01:06:00,43.6,39.7,30.23,NNE,15,0.0,0.0,86,0.00,,,0.00,LWC V2.11 B50,2013-05-05 05:06:00,
2013-05-05 01:11:00,43.6,40.0,30.23,NNE,15,0.0,0.0,87,0.00,,,0.00,LWC V2.11 B50,2013-05-05 05:11:00,
2013-05-05 01:16:00,43.5,39.9,30.23,NNE,16,0.0,0.0,87,0.00,,,0.00,LWC V2.11 B50,2013-05-05 05:16:00,
2013-05-05 01:21:00,43.4,39.8,30.23,NNE,16,0.0,0.0,87,0.00,,,0.00,LWC V2.11 B50,2013-05-05 05:21:00,
2013-05-05 01:26:00,43.3,39.7,30.22,NNE,16,0.0,0.0,87,0.00,,,0.00,LWC V2.11 B50,2013-05-05 05:26:00,
2013-05-05 01:31:00,43.2,39.6,30.22,NNE,15,0.0,0.0,87,0.00,,,0.00,LWC V2.11 B50,2013-05-05 05:31:00,
2013-05-05 01:36:00,43.1,39.5,30.22,NNE,16,0.0,0.0,87,0.00,,,0.00,LWC V2.11 B50,2013-05-05 05:36:00,
2013-05-05 01:41:00,42.9,39.6,30.22,NNE,16,0.0,0.0,88,0.00,,,0.00,LWC V2.11 B50,2013-05-05 05:41:00,
2013-05-05 01:46:00,42.8,39.5,30.22,NNE,15,0.0,0.0,88,0.00,,,0.00,LWC V2.11 B50,2013-05-05 05:46:00,
2013-05-05 01:51:00,42.7,39.4,30.22,NNE,16,0.0,0.0,88,0.00,,,0.00,LWC V2.11 B50,2013-05-05 05:51:00,
2013-05-05 01:56:00,42.5,39.2,30.22,NNE,16,0.0,0.0,88,0.00,,,0.00,LWC V2.11 B50,2013-05-05 05:56:00,
2013-05-05 02:01:00,42.3,39.0,30.21,NNE,16,0.0,0.0,88,0.00,,,0.00,LWC V2.11 B50,2013-05-05 06:01:00,
2013-05-05 02:06:00,42.1,38.8,30.21,NNE,15,0.0,0.0,88,0.00,,,0.00,LWC V2.11 B50,2013-05-05 06:06:00,
2013-05-05 02:11:00,41.9,38.6,30.21,NNE,16,0.0,0.0,88,0.00,,,0.00,LWC V2.11 B50,2013-05-05 06:11:00,
2013-05-05 02:16:00,41.6,38.6,30.21,NNE,16,0.0,0.0,89,0.00,,,0.00,LWC V2.11 B50,2013-05-05 06:16:00,
2013-05-05 02:21:00,41.5,38.5,30.21,NNE,15,0.0,0.0,89,0.00,,,0.00,LWC V2.11 B50,2013-05-05 06:21:00,
2013-05-05 02:26:00,41.4,38.4,30.21,NNE,16,0.0,0.0,89,0.00,,,0.00,LWC V2.11 B50,2013-05-05 06:26:00,
2013-05-05 02:31:00,41.3,38.3,30.21,NNE,15,0.0,0.0,89,0.00,,,0.00,LWC V2.11 B50,2013-05-05 06:31:00,
2013-05-05 02:36:00,41.1,38.4,30.21,NNE,16,0.0,0.0,90,0.00,,,0.00,LWC V2.11 B50,2013-05-05 06:36:00,
2013-05-05 02:41:00,41.0,38.3,30.21,NNE,16,0.0,0.0,90,0.00,,,0.00,LWC V2.11 B50,2013-05-05 06:41:00,
2013-05-05 02:46:00,40.7,37.7,30.21,NNE,15,0.0,0.0,89,0.00,,,0.00,LWC V2.11 B50,2013-05-05 06:46:00,
2013-05-05 02:51:00,40.5,37.5,30.21,NNE,16,0.0,0.0,89,0.00,,,0.00,LWC V2.11 B50,2013-05-05 06:51:00,
2013-05-05 02:56:00,40.2,37.5,30.21,NNE,15,0.0,0.0,90,0.00,,,0.00,LWC V2.11 B50,2013-05-05 06:56:00,
2013-05-05 03:01:00,40.0,37.3,30.20,NNE,15,0.0,0.0,90,0.00,,,0.00,LWC V2.11 B50,2013-05-05 07:01:00,
2013-05-05 03:06:00,39.8,37.1,30.20,NNE,16,0.0,0.0,90,0.00,,,0.00,LWC V2.11 B50,2013-05-05 07:06:00,
2013-05-05 03:11:00,39.7,37.0,30.20,NNE,16,0.0,0.0,90,0.00,,,0.00,LWC V2.11 B50,2013-05-05 07:11:00,
2013-05-05 03:16:00,39.5,36.8,30.21,NNE,16,0.0,0.0,90,0.00,,,0.00,LWC V2.11 B50,2013-05-05 07:16:00,
2013-05-05 03:21:00,39.1,36.4,30.21,NNE,15,0.0,0.0,90,0.00,,,0.00,LWC V2.11 B50,2013-05-05 07:21:00,
2013-05-05 03:26:00,38.9,36.2,30.21,NNE,16,0.0,0.0,90,0.00,,,0.00,LWC V2.11 B50,2013-05-05 07:26:00,
2013-05-05 03:31:00,38.7,36.0,30.20,NNE,16,0.0,0.0,90,0.00,,,0.00,LWC V2.11 B50,2013-05-05 07:31:00,
2013-05-05 03:36:00,38.5,35.8,30.20,NNE,16,0.0,0.0,90,0.00,,,0.00,LWC V2.11 B50,2013-05-05 07:36:00,
2013-05-05 03:41:00,38.4,36.0,30.21,NNE,16,0.0,0.0,91,0.00,,,0.00,LWC V2.11 B50,2013-05-05 07:41:00,
2013-05-05 03:46:00,38.3,35.9,30.20,NNE,15,0.0,0.0,91,0.00,,,0.00,LWC V2.11 B50,2013-05-05 07:46:00,
2013-05-05 03:51:00,38.3,35.9,30.21,NNE,16,0.0,0.0,91,0.00,,,0.00,LWC V2.11 B50,2013-05-05 07:51:00,
2013-05-05 03:56:00,38.4,36.3,30.20,NNE,15,0.0,0.0,92,0.00,,,0.00,LWC V2.11 B50,2013-05-05 07:56:00,
2013-05-05 04:01:00,38.4,36.3,30.20,NNE,16,0.0,0.0,92,0.00,,,0.00,LWC V2.11 B50,2013-05-05 08:01:00,
2013-05-05 04:06:00,38.5,36.4,30.20,NNE,16,0.0,0.0,92,0.00,,,0.00,LWC V2.11 B50,2013-05-05 08:06:00,
2013-05-05 04:11:00,38.7,36.6,30.20,NNE,16,0.0,0.0,92,0.00,,,0.00,LWC V2.11 B50,2013-05-05 08:11:00,
2013-05-05 04:16:00,38.9,37.1,30.20,NNE,15,0.0,0.0,93,0.00,,,0.00,LWC V2.11 B50,2013-05-05 08:16:00,
2013-05-05 04:21:00,39.2,37.3,30.21,NNE,16,0.0,0.0,93,0.00,,,0.00,LWC V2.11 B50,2013-05-05 08:21:00,
2013-05-05 04:26:00,39.4,37.5,30.21,NNE,16,0.0,0.0,93,0.00,,,0.00,LWC V2.11 B50,2013-05-05 08:26:00,
2013-05-05 04:31:00,39.7,37.8,30.21,NNE,15,0.0,0.0,93,0.00,,,0.00,LWC V2.11 B50,2013-05-05 08:31:00,
2013-05-05 04:36:00,40.0,38.1,30.21,NNE,15,0.0,0.0,93,0.00,,,0.00,LWC V2.11 B50,2013-05-05 08:36:00,
2013-05-05 04:41:00,40.2,38.6,30.20,NNE,16,0.0,0.0,94,0.00,,,0.00,LWC V2.11 B50,2013-05-05 08:41:00,
2013-05-05 04:46:00,40.5,38.9,30.20,NNE,16,0.0,0.0,94,0.00,,,0.00,LWC V2.11 B50,2013-05-05 08:46:00,
2013-05-05 04:51:00,40.7,39.1,30.20,NNE,15,0.0,0.0,94,0.00,,,0.00,LWC V2.11 B50,2013-05-05 08:51:00,
2013-05-05 04:56:00,41.2,39.6,30.20,NNE,16,0.0,0.0,94,0.00,,,0.00,LWC V2.11 B50,2013-05-05 08:56:00,
2013-05-05 05:01:00,41.6,40.0,30.20,NNE,16,0.0,0.0,94,0.00,,,0.00,LWC V2.11 B50,2013-05-05 09:01:00,
2013-05-05 05:06:00,42.0,40.4,30.20,NNE,16,0.0,1.0,94,0.00,,,0.00,LWC V2.11 B50,2013-05-05 09:06:00,
2013-05-05 05:11:00,42.2,40.6,30.20,NNE,15,0.0,0.0,94,0.00,,,0.00,LWC V2.11 B50,2013-05-05 09:11:00,
2013-05-05 05:16:00,42.5,40.9,30.20,NNE,23,0.0,2.0,94,0.00,,,0.00,LWC V2.11 B50,2013-05-05 09:16:00,
2013-05-05 05:21:00,42.6,41.0,30.20,NNE,23,0.0,0.0,94,0.00,,,0.00,LWC V2.11 B50,2013-05-05 09:21:00,
2013-05-05 05:26:00,42.8,41.2,30.20,NNE,22,0.0,0.0,94,0.00,,,0.00,LWC V2.11 B50,2013-05-05 09:26:00,
2013-05-05 05:31:00,42.9,41.3,30.20,NNE,22,0.0,0.0,94,0.00,,,0.00,LWC V2.11 B50,2013-05-05 09:31:00,
2013-05-05 05:36:00,43.0,41.1,30.20,NNE,23,0.0,0.0,93,0.00,,,0.00,LWC V2.11 B50,2013-05-05 09:36:00,
2013-05-05 05:41:00,43.1,41.2,30.20,ENE,64,0.0,2.0,93,0.00,,,0.00,LWC V2.11 B50,2013-05-05 09:41:00,
2013-05-05 05:46:00,43.3,41.4,30.20,ENE,64,0.0,0.0,93,0.00,,,0.00,LWC V2.11 B50,2013-05-05 09:46:00,
2013-05-05 05:51:00,43.4,41.5,30.20,ENE,64,0.0,0.0,93,0.00,,,0.00,LWC V2.11 B50,2013-05-05 09:51:00,
2013-05-05 05:56:00,43.5,41.6,30.20,ENE,65,0.0,0.0,93,0.00,,,0.00,LWC V2.11 B50,2013-05-05 09:56:00,
2013-05-05 06:01:00,43.7,41.5,30.20,NE,55,0.0,3.0,92,0.00,,,0.00,LWC V2.11 B50,2013-05-05 10:01:00,
2013-05-05 06:06:00,43.8,41.6,30.20,NE,55,0.0,1.0,92,0.00,,,0.00,LWC V2.11 B50,2013-05-05 10:06:00,
2013-05-05 06:11:00,44.0,41.5,30.20,NE,56,0.0,0.0,91,0.00,,,0.00,LWC V2.11 B50,2013-05-05 10:11:00,
2013-05-05 06:16:00,44.1,41.6,30.20,NE,56,0.0,0.0,91,0.00,,,0.00,LWC V2.11 B50,2013-05-05 10:16:00,
2013-05-05 06:21:00,44.2,41.7,30.20,NE,49,1.0,2.0,91,0.00,,,0.00,LWC V2.11 B50,2013-05-05 10:21:00,
2013-05-05 06:26:00,44.3,41.6,30.21,NE,41,0.0,4.0,90,0.00,,,0.00,LWC V2.11 B50,2013-05-05 10:26:00,
2013-05-05 06:31:00,44.4,41.4,30.21,NE,41,0.0,0.0,89,0.00,,,0.00,LWC V2.11 B50,2013-05-05 10:31:00,
2013-05-05 06:36:00,44.5,41.5,30.21,NNE,30,0.0,0.0,89,0.00,,,0.00,LWC V2.11 B50,2013-05-05 10:36:00,
2013-05-05 06:41:00,44.6,41.3,30.21,ENE,63,0.0,2.0,88,0.00,,,0.00,LWC V2.11 B50,2013-05-05 10:41:00,
2013-05-05 06:46:00,44.8,41.5,30.21,NE,48,0.0,0.0,88,0.00,,,0.00,LWC V2.11 B50,2013-05-05 10:46:00,
2013-05-05 06:51:00,44.9,41.3,30.21,NE,49,0.0,6.0,87,0.00,,,0.00,LWC V2.11 B50,2013-05-05 10:51:00,
2013-05-05 06:56:00,45.0,41.4,30.21,NE,34,2.0,4.0,87,0.00,,,0.00,LWC V2.11 B50,2013-05-05 10:56:00,
2013-05-05 07:01:00,45.2,41.3,30.21,NE,44,7.0,8.0,86,0.00,,,0.00,LWC V2.11 B50,2013-05-05 11:01:00,
2013-05-05 07:06:00,45.4,41.2,30.21,ENE,65,1.0,3.0,85,0.00,,,0.00,LWC V2.11 B50,2013-05-05 11:06:00,
2013-05-05 07:11:00,45.5,41.0,30.22,ENE,61,0.0,4.0,84,0.00,,,0.00,LWC V2.11 B50,2013-05-05 11:11:00,
2013-05-05 07:16:00,45.9,41.3,30.22,NE,40,2.0,3.0,84,0.00,,,0.00,LWC V2.11 B50,2013-05-05 11:16:00,
2013-05-05 07:21:00,46.2,41.3,30.22,NE,42,7.0,7.0,83,0.00,,,0.00,LWC V2.11 B50,2013-05-05 11:21:00,
2013-05-05 07:26:00,46.6,41.4,30.22,ENE,60,2.0,2.0,82,0.00,,,0.00,LWC V2.11 B50,2013-05-05 11:26:00,
2013-05-05 07:31:00,46.9,41.1,30.22,NE,46,4.0,4.0,80,0.00,,,0.00,LWC V2.11 B50,2013-05-05 11:31:00,
2013-05-05 07:36:00,46.9,40.7,30.22,SE,130,0.0,5.0,79,0.00,,,0.00,LWC V2.11 B50,2013-05-05 11:36:00,
2013-05-05 07:41:00,46.6,40.1,30.22,NNE,22,4.0,7.0,78,0.00,,,0.00,LWC V2.11 B50,2013-05-05 11:41:00,
2013-05-05 07:46:00,46.6,40.4,30.22,SSE,160,0.0,5.0,79,0.00,,,0.00,LWC V2.11 B50,2013-05-05 11:46:00,
2013-05-05 07:51:00,46.7,40.5,30.23,SE,126,0.0,0.0,79,0.00,,,0.00,LWC V2.11 B50,2013-05-05 11:51:00,
2013-05-05 07:56:00,46.8,40.3,30.23,North,10,3.0,5.0,78,0.00,,,0.00,LWC V2.11 B50,2013-05-05 11:56:00,
2013-05-05 08:01:00,46.7,40.2,30.23,NNE,15,3.0,7.0,78,0.00,,,0.00,LWC V2.11 B50,2013-05-05 12:01:00,
2013-05-05 08:06:00,46.8,40.3,30.23,North,0,1.0,7.0,78,0.00,,,0.00,LWC V2.11 B50,2013-05-05 12:06:00,
2013-05-05 08:11:00,46.9,39.7,30.23,NE,34,4.0,6.0,76,0.00,,,0.00,LWC V2.11 B50,2013-05-05 12:11:00,
2013-05-05 08:16:00,47.0,39.8,30.23,ENE,61,0.0,0.0,76,0.00,,,0.00,LWC V2.11 B50,2013-05-05 12:16:00,
2013-05-05 08:21:00,47.3,40.1,30.23,East,83,0.0,8.0,76,0.00,,,0.00,LWC V2.11 B50,2013-05-05 12:21:00,
2013-05-05 08:26:00,47.5,40.3,30.23,ENE,59,2.0,9.0,76,0.00,,,0.00,LWC V2.11 B50,2013-05-05 12:26:00,
2013-05-05 08:31:00,47.7,40.2,30.23,NNE,32,4.0,6.0,75,0.00,,,0.00,LWC V2.11 B50,2013-05-05 12:31:00,
2013-05-05 08:36:00,47.8,40.3,30.23,East,81,2.0,4.0,75,0.00,,,0.00,LWC V2.11 B50,2013-05-05 12:36:00,
2013-05-05 08:41:00,47.8,40.3,30.23,ENE,57,0.0,3.0,75,0.00,,,0.00,LWC V2.11 B50,2013-05-05 12:41:00,
2013-05-05 08:46:00,48.4,40.8,30.23,East,88,4.0,6.0,75,0.00,,,0.00,LWC V2.11 B50,2013-05-05 12:46:00,
2013-05-05 08:51:00,48.9,40.6,30.23,East,93,0.0,1.0,73,0.00,,,0.00,LWC V2.11 B50,2013-05-05 12:51:00,
2013-05-05 08:56:00,49.1,40.5,30.23,ESE,110,0.0,10.0,72,0.00,,,0.00,LWC V2.11 B50,2013-05-05 12:56:00,
2013-05-05 09:01:00,49.3,41.0,30.23,North,9,0.0,0.0,73,0.00,,,0.00,LWC V2.11 B50,2013-05-05 13:01:00,
2013-05-05 09:06:00,49.7,41.4,30.23,NE,51,7.0,7.0,73,0.00,,,0.00,LWC V2.11 B50,2013-05-05 13:06:00,
2013-05-05 09:11:00,50.4,42.1,30.23,ESE,105,0.0,0.0,73,0.00,,,0.00,LWC V2.11 B50,2013-05-05 13:11:00,
2013-05-05 09:16:00,51.1,41.7,30.23,ENE,59,3.0,3.0,70,0.00,,,0.00,LWC V2.11 B50,2013-05-05 13:16:00,
2013-05-05 09:21:00,51.8,42.3,30.22,East,100,3.0,7.0,70,0.00,,,0.00,LWC V2.11 B50,2013-05-05 13:21:00,
2013-05-05 09:26:00,52.1,41.9,30.23,ENE,63,0.0,6.0,68,0.00,,,0.00,LWC V2.11 B50,2013-05-05 13:26:00,
2013-05-05 09:31:00,52.5,42.2,30.23,East,95,2.0,7.0,68,0.00,,,0.00,LWC V2.11 B50,2013-05-05 13:31:00,
2013-05-05 09:36:00,53.0,43.5,30.23,ENE,75,0.0,0.0,70,0.00,,,0.00,LWC V2.11 B50,2013-05-05 13:36:00,
2013-05-05 09:41:00,53.5,42.4,30.23,NE,38,3.0,5.0,66,0.00,,,0.00,LWC V2.11 B50,2013-05-05 13:41:00,
2013-05-05 09:46:00,53.1,42.0,30.23,SSE,168,4.0,4.0,66,0.00,,,0.00,LWC V2.11 B50,2013-05-05 13:46:00,
2013-05-05 09:51:00,52.8,42.1,30.23,ENE,64,3.0,6.0,67,0.00,,,0.00,LWC V2.11 B50,2013-05-05 13:51:00,
2013-05-05 09:56:00,53.1,42.4,30.23,ESE,112,2.0,7.0,67,0.00,,,0.00,LWC V2.11 B50,2013-05-05 13:56:00,
2013-05-05 10:01:00,53.2,42.1,30.22,East,84,0.0,5.0,66,0.00,,,0.00,LWC V2.11 B50,2013-05-05 14:01:00,
2013-05-05 10:06:00,53.5,42.4,30.23,ENE,65,4.0,5.0,66,0.00,,,0.00,LWC V2.11 B50,2013-05-05 14:06:00,
2013-05-05 10:11:00,53.1,41.6,30.22,ESE,116,2.0,7.0,65,0.00,,,0.00,LWC V2.11 B50,2013-05-05 14:11:00,
2013-05-05 10:16:00,52.7,41.3,30.22,NNE,30,3.0,4.0,65,0.00,,,0.00,LWC V2.11 B50,2013-05-05 14:16:00,
2013-05-05 10:21:00,53.1,42.4,30.22,ESE,109,3.0,5.0,67,0.00,,,0.00,LWC V2.11 B50,2013-05-05 14:21:00,
2013-05-05 10:26:00,53.1,42.0,30.22,NE,49,3.0,7.0,66,0.00,,,0.00,LWC V2.11 B50,2013-05-05 14:26:00,
2013-05-05 10:31:00,53.7,43.4,30.22,NE,36,0.0,5.0,68,0.00,,,0.00,LWC V2.11 B50,2013-05-05 14:31:00,
2013-05-05 10:36:00,54.4,43.7,30.22,NE,38,1.0,5.0,67,0.00,,,0.00,LWC V2.11 B50,2013-05-05 14:36:00,
2013-05-05 10:41:00,54.7,42.8,30.22,ENE,71,0.0,6.0,64,0.00,,,0.00,LWC V2.11 B50,2013-05-05 14:41:00,
2013-05-05 10:46:00,54.9,43.0,30.22,East,86,0.0,6.0,64,0.00,,,0.00,LWC V2.11 B50,2013-05-05 14:46:00,
2013-05-05 10:51:00,55.2,43.6,30.21,ESE,120,1.0,6.0,65,0.00,,,0.00,LWC V2.11 B50,2013-05-05 14:51:00,
2013-05-05 10:56:00,55.1,43.1,30.21,NE,41,2.0,4.0,64,0.00,,,0.00,LWC V2.11 B50,2013-05-05 14:56:00,
2013-05-05 11:01:00,55.3,42.9,30.21,ESE,110,3.0,9.0,63,0.00,,,0.00,LWC V2.11 B50,2013-05-05 15:01:00,
2013-05-05 11:06:00,55.4,43.8,30.21,East,96,3.0,6.0,65,0.00,,,0.00,LWC V2.11 B50,2013-05-05 15:06:00,
2013-05-05 11:11:00,55.9,43.5,30.20,NNE,28,4.0,6.0,63,0.00,,,0.00,LWC V2.11 B50,2013-05-05 15:11:00,
2013-05-05 11:16:00,56.6,44.6,30.21,SE,125,0.0,6.0,64,0.00,,,0.00,LWC V2.11 B50,2013-05-05 15:16:00,
2013-05-05 11:21:00,57.3,44.0,30.20,NE,53,3.0,6.0,61,0.00,,,0.00,LWC V2.11 B50,2013-05-05 15:21:00,
2013-05-05 11:26:00,57.7,45.2,30.20,ENE,61,3.0,6.0,63,0.00,,,0.00,LWC V2.11 B50,2013-05-05 15:26:00,
2013-05-05 11:31:00,58.0,44.6,30.21,East,88,6.0,6.0,61,0.00,,,0.00,LWC V2.11 B50,2013-05-05 15:31:00,
2013-05-05 11:36:00,57.9,43.7,30.21,ENE,65,3.0,12.0,59,0.00,,,0.00,LWC V2.11 B50,2013-05-05 15:36:00,
2013-05-05 11:41:00,58.1,43.8,30.21,NE,56,0.0,6.0,59,0.00,,,0.00,LWC V2.11 B50,2013-05-05 15:41:00,
2013-05-05 11:46:00,58.2,44.8,30.20,ENE,72,6.0,11.0,61,0.00,,,0.00,LWC V2.11 B50,2013-05-05 15:46:00,
2013-05-05 11:51:00,58.5,44.2,30.20,SE,127,0.0,0.0,59,0.00,,,0.00,LWC V2.11 B50,2013-05-05 15:51:00,
2013-05-05 11:56:00,58.2,42.6,30.20,NE,44,0.0,3.0,56,0.00,,,0.00,LWC V2.11 B50,2013-05-05 15:56:00,
2013-05-05 12:01:00,58.0,44.2,30.20,NE,55,4.0,7.0,60,0.00,,,0.00,LWC V2.11 B50,2013-05-05 16:01:00,
2013-05-05 12:06:00,58.4,44.1,30.20,East,96,4.0,6.0,59,0.00,,,0.00,LWC V2.11 B50,2013-05-05 16:06:00,
2013-05-05 12:11:00,58.7,43.0,30.19,ESE,106,0.0,3.0,56,0.00,,,0.00,LWC V2.11 B50,2013-05-05 16:11:00,
2013-05-05 12:16:00,59.3,44.1,30.19,ENE,64,0.0,4.0,57,0.00,,,0.00,LWC V2.11 B50,2013-05-05 16:16:00,
2013-05-05 12:21:00,59.6,43.9,30.19,NW,311,0.0,4.0,56,0.00,,,0.00,LWC V2.11 B50,2013-05-05 16:21:00,
2013-05-05 12:26:00,59.8,44.1,30.19,ENE,74,4.0,6.0,56,0.00,,,0.00,LWC V2.11 B50,2013-05-05 16:26:00,
2013-05-05 12:31:00,59.6,42.9,30.19,ENE,60,6.0,9.0,54,0.00,,,0.00,LWC V2.11 B50,2013-05-05 16:31:00,
2013-05-05 12:36:00,59.5,43.3,30.19,ESE,105,0.0,4.0,55,0.00,,,0.00,LWC V2.11 B50,2013-05-05 16:36:00,
2013-05-05 12:41:00,59.7,43.5,30.19,SSE,155,5.0,8.0,55,0.00,,,0.00,LWC V2.11 B50,2013-05-05 16:41:00,
2013-05-05 12:46:00,59.6,44.8,30.19,SE,132,4.0,8.0,58,0.00,,,0.00,LWC V2.11 B50,2013-05-05 16:46:00,
2013-05-05 12:51:00,59.6,43.9,30.19,ESE,106,2.0,7.0,56,0.00,,,0.00,LWC V2.11 B50,2013-05-05 16:51:00,
2013-05-05 12:56:00,60.0,44.3,30.19,ENE,57,3.0,5.0,56,0.00,,,0.00,LWC V2.11 B50,2013-05-05 16:56:00,
2013-05-05 13:01:00,60.3,43.6,30.18,SSE,151,0.0,0.0,54,0.00,,,0.00,LWC V2.11 B50,2013-05-05 17:01:00,
2013-05-05 13:06:00,60.4,44.6,30.18,SE,144,3.0,7.0,56,0.00,,,0.00,LWC V2.11 B50,2013-05-05 17:06:00,
2013-05-05 13:11:00,60.3,43.6,30.18,NNE,19,3.0,11.0,54,0.00,,,0.00,LWC V2.11 B50,2013-05-05 17:11:00,
2013-05-05 13:16:00,60.6,44.3,30.17,ENE,58,0.0,3.0,55,0.00,,,0.00,LWC V2.11 B50,2013-05-05 17:16:00,
2013-05-05 13:21:00,61.1,44.8,30.17,NE,44,5.0,5.0,55,0.00,,,0.00,LWC V2.11 B50,2013-05-05 17:21:00,
2013-05-05 13:26:00,61.5,44.7,30.17,ENE,65,3.0,5.0,54,0.00,,,0.00,LWC V2.11 B50,2013-05-05 17:26:00,
2013-05-05 13:31:00,61.7,44.9,30.17,ESE,109,1.0,9.0,54,0.00,,,0.00,LWC V2.11 B50,2013-05-05 17:31:00,
2013-05-05 13:36:00,61.7,44.4,30.17,NE,42,5.0,10.0,53,0.00,,,0.00,LWC V2.11 B50,2013-05-05 17:36:00,
2013-05-05 13:41:00,61.6,44.8,30.17,ENE,78,4.0,11.0,54,0.00,,,0.00,LWC V2.11 B50,2013-05-05 17:41:00,
2013-05-05 13:46:00,61.5,43.7,30.17,NE,40,4.0,6.0,52,0.00,,,0.00,LWC V2.11 B50,2013-05-05 17:46:00,
2013-05-05 13:51:00,61.6,43.8,30.17,SSE,147,7.0,7.0,52,0.00,,,0.00,LWC V2.11 B50,2013-05-05 17:51:00,
2013-05-05 13:56:00,61.6,44.3,30.17,South,189,2.0,5.0,53,0.00,,,0.00,LWC V2.11 B50,2013-05-05 17:56:00,
2013-05-05 14:01:00,61.9,45.6,30.17,ESE,110,4.0,6.0,55,0.00,,,0.00,LWC V2.11 B50,2013-05-05 18:01:00,
2013-05-05 14:06:00,62.3,45.9,30.17,ESE,116,1.0,5.0,55,0.00,,,0.00,LWC V2.11 B50,2013-05-05 18:06:00,
2013-05-05 14:11:00,62.4,45.0,30.17,East,84,0.0,0.0,53,0.00,,,0.00,LWC V2.11 B50,2013-05-05 18:11:00,
2013-05-05 14:16:00,62.9,46.5,30.17,ENE,69,4.0,6.0,55,0.00,,,0.00,LWC V2.11 B50,2013-05-05 18:16:00,
2013-05-05 14:21:00,63.3,44.3,30.17,NNE,24,2.0,5.0,50,0.00,,,0.00,LWC V2.11 B50,2013-05-05 18:21:00,
2013-05-05 14:26:00,63.2,44.8,30.17,NE,36,2.0,7.0,51,0.00,,,0.00,LWC V2.11 B50,2013-05-05 18:26:00,
2013-05-05 14:31:00,62.9,44.0,30.17,SSW,194,4.0,4.0,50,0.00,,,0.00,LWC V2.11 B50,2013-05-05 18:31:00,
2013-05-05 14:36:00,63.2,45.8,30.17,ENE,65,1.0,6.0,53,0.00,,,0.00,LWC V2.11 B50,2013-05-05 18:36:00,
2013-05-05 14:41:00,63.3,45.4,30.16,ESE,118,1.0,6.0,52,0.00,,,0.00,LWC V2.11 B50,2013-05-05 18:41:00,
2013-05-05 14:46:00,63.3,44.3,30.17,NE,47,4.0,14.0,50,0.00,,,0.00,LWC V2.11 B50,2013-05-05 18:46:00,
2013-05-05 14:51:00,63.4,45.0,30.17,East,99,4.0,8.0,51,0.00,,,0.00,LWC V2.11 B50,2013-05-05 18:51:00,
2013-05-05 14:56:00,63.1,44.7,30.16,SSE,157,2.0,7.0,51,0.00,,,0.00,LWC V2.11 B50,2013-05-05 18:56:00,
2013-05-05 15:01:00,63.2,45.8,30.16,SE,146,2.0,9.0,53,0.00,,,0.00,LWC V2.11 B50,2013-05-05 19:01:00,
2013-05-05 15:06:00,63.5,45.0,30.16,ESE,117,4.0,5.0,51,0.00,,,0.00,LWC V2.11 B50,2013-05-05 19:06:00,
2013-05-05 15:11:00,63.6,45.6,30.16,East,94,3.0,9.0,52,0.00,,,0.00,LWC V2.11 B50,2013-05-05 19:11:00,
2013-05-05 15:16:00,63.5,45.0,30.16,SE,146,0.0,3.0,51,0.00,,,0.00,LWC V2.11 B50,2013-05-05 19:16:00,
2013-05-05 15:21:00,63.4,45.0,30.16,ENE,65,1.0,5.0,51,0.00,,,0.00,LWC V2.11 B50,2013-05-05 19:21:00,
2013-05-05 15:26:00,63.7,45.2,30.16,ESE,102,0.0,3.0,51,0.00,,,0.00,LWC V2.11 B50,2013-05-05 19:26:00,
2013-05-05 15:31:00,63.8,45.8,30.16,SE,128,0.0,3.0,52,0.00,,,0.00,LWC V2.11 B50,2013-05-05 19:31:00,
2013-05-05 15:36:00,64.1,44.0,30.16,ENE,57,3.0,5.0,48,0.00,,,0.00,LWC V2.11 B50,2013-05-05 19:36:00,
2013-05-05 15:41:00,64.0,43.9,30.16,South,178,0.0,9.0,48,0.00,,,0.00,LWC V2.11 B50,2013-05-05 19:41:00,
2013-05-05 15:46:00,63.7,44.7,30.16,SSE,147,5.0,6.0,50,0.00,,,0.00,LWC V2.11 B50,2013-05-05 19:46:00,
2013-05-05 15:51:00,63.4,45.5,30.15,ENE,71,2.0,6.0,52,0.00,,,0.00,LWC V2.11 B50,2013-05-05 19:51:00,
2013-05-05 15:56:00,63.5,44.5,30.16,East,94,1.0,3.0,50,0.00,,,0.00,LWC V2.11 B50,2013-05-05 19:56:00,
2013-05-05 16:01:00,63.6,46.2,30.15,SSW,211,0.0,1.0,53,0.00,,,0.00,LWC V2.11 B50,2013-05-05 20:01:00,
2013-05-05 16:06:00,63.9,44.4,30.15,ESE,118,0.0,6.0,49,0.00,,,0.00,LWC V2.11 B50,2013-05-05 20:06:00,
2013-05-05 16:11:00,64.1,44.5,30.15,ENE,57,0.0,0.0,49,0.00,,,0.00,LWC V2.11 B50,2013-05-05 20:11:00,
2013-05-05 16:16:00,64.3,44.7,30.15,ESE,110,4.0,8.0,49,0.00,,,0.00,LWC V2.11 B50,2013-05-05 20:16:00,
2013-05-05 16:21:00,64.3,44.2,30.15,ESE,111,1.0,1.0,48,0.00,,,0.00,LWC V2.11 B50,2013-05-05 20:21:00,
2013-05-05 16:26:00,64.3,46.3,30.15,ESE,123,0.0,6.0,52,0.00,,,0.00,LWC V2.11 B50,2013-05-05 20:26:00,
2013-05-05 16:31:00,64.2,47.2,30.15,SSE,153,0.0,4.0,54,0.00,,,0.00,LWC V2.11 B50,2013-05-05 20:31:00,
2013-05-05 16:36:00,64.3,45.3,30.15,SE,145,4.0,6.0,50,0.00,,,0.00,LWC V2.11 B50,2013-05-05 20:36:00,
2013-05-05 16:41:00,63.9,44.9,30.14,East,100,0.0,0.0,50,0.00,,,0.00,LWC V2.11 B50,2013-05-05 20:41:00,
2013-05-05 16:46:00,63.8,44.8,30.14,ESE,111,0.0,7.0,50,0.00,,,0.00,LWC V2.11 B50,2013-05-05 20:46:00,
2013-05-05 16:51:00,63.5,45.6,30.14,NE,48,4.0,4.0,52,0.00,,,0.00,LWC V2.11 B50,2013-05-05 20:51:00,
2013-05-05 16:56:00,63.7,45.2,30.14,SE,136,6.0,10.0,51,0.00,,,0.00,LWC V2.11 B50,2013-05-05 20:56:00,
2013-05-05 17:01:00,63.5,45.6,30.14,SSW,205,4.0,9.0,52,0.00,,,0.00,LWC V2.11 B50,2013-05-05 21:01:00,
2013-05-05 17:06:00,63.5,45.0,30.14,SE,145,6.0,13.0,51,0.00,,,0.00,LWC V2.11 B50,2013-05-05 21:06:00,
2013-05-05 17:11:00,63.0,44.6,30.14,NE,42,2.0,4.0,51,0.00,,,0.00,LWC V2.11 B50,2013-05-05 21:11:00,
2013-05-05 17:16:00,62.9,44.5,30.14,SE,126,0.0,6.0,51,0.00,,,0.00,LWC V2.11 B50,2013-05-05 21:16:00,
2013-05-05 17:21:00,62.7,45.8,30.14,SE,138,5.0,7.0,54,0.00,,,0.00,LWC V2.11 B50,2013-05-05 21:21:00,
2013-05-05 17:26:00,62.6,44.2,30.14,ENE,67,3.0,5.0,51,0.00,,,0.00,LWC V2.11 B50,2013-05-05 21:26:00,
2013-05-05 17:31:00,62.7,45.3,30.14,ESE,103,1.0,7.0,53,0.00,,,0.00,LWC V2.11 B50,2013-05-05 21:31:00,
2013-05-05 17:36:00,62.5,44.1,30.14,ENE,67,0.0,7.0,51,0.00,,,0.00,LWC V2.11 B50,2013-05-05 21:36:00,
2013-05-05 17:41:00,62.3,43.9,30.14,ESE,109,3.0,6.0,51,0.00,,,0.00,LWC V2.11 B50,2013-05-05 21:41:00,
2013-05-05 17:46:00,62.1,43.8,30.14,ESE,115,0.0,5.0,51,0.00,,,0.00,LWC V2.11 B50,2013-05-05 21:46:00,
2013-05-05 17:51:00,62.1,43.8,30.14,East,82,1.0,6.0,51,0.00,,,0.00,LWC V2.11 B50,2013-05-05 21:51:00,
2013-05-05 17:56:00,62.2,44.9,30.14,ESE,107,0.0,1.0,53,0.00,,,0.00,LWC V2.11 B50,2013-05-05 21:56:00,
2013-05-05 18:01:00,62.1,43.8,30.14,ESE,115,5.0,5.0,51,0.00,,,0.00,LWC V2.11 B50,2013-05-05 22:01:00,
2013-05-05 18:06:00,61.7,43.9,30.15,East,96,8.0,11.0,52,0.00,,,0.00,LWC V2.11 B50,2013-05-05 22:06:00,
2013-05-05 18:11:00,61.3,45.0,30.15,ENE,60,5.0,6.0,55,0.00,,,0.00,LWC V2.11 B50,2013-05-05 22:11:00,
2013-05-05 18:16:00,61.2,43.9,30.15,ESE,109,2.0,4.0,53,0.00,,,0.00,LWC V2.11 B50,2013-05-05 22:16:00,
2013-05-05 18:21:00,60.9,43.7,30.15,ESE,106,0.0,5.0,53,0.00,,,0.00,LWC V2.11 B50,2013-05-05 22:21:00,
2013-05-05 18:26:00,60.9,44.1,30.15,NE,45,5.0,5.0,54,0.00,,,0.00,LWC V2.11 B50,2013-05-05 22:26:00,
2013-05-05 18:31:00,60.8,43.6,30.15,East,85,3.0,7.0,53,0.00,,,0.00,LWC V2.11 B50,2013-05-05 22:31:00,
2013-05-05 18:36:00,60.4,44.2,30.15,ESE,122,0.0,5.0,55,0.00,,,0.00,LWC V2.11 B50,2013-05-05 22:36:00,
2013-05-05 18:41:00,59.8,44.5,30.16,East,101,0.0,2.0,57,0.00,,,0.00,LWC V2.11 B50,2013-05-05 22:41:00,
2013-05-05 18:46:00,59.5,44.3,30.16,SE,137,0.0,5.0,57,0.00,,,0.00,LWC V2.11 B50,2013-05-05 22:46:00,
2013-05-05 18:51:00,59.1,44.3,30.16,NE,53,0.0,2.0,58,0.00,,,0.00,LWC V2.11 B50,2013-05-05 22:51:00,
2013-05-05 18:56:00,58.9,45.0,30.16,East,83,0.0,0.0,60,0.00,,,0.00,LWC V2.11 B50,2013-05-05 22:56:00,
2013-05-05 19:01:00,58.6,44.3,30.16,ESE,119,0.0,0.0,59,0.00,,,0.00,LWC V2.11 B50,2013-05-05 23:01:00,
2013-05-05 19:06:00,58.3,44.5,30.16,ENE,78,3.0,7.0,60,0.00,,,0.00,LWC V2.11 B50,2013-05-05 23:06:00,
2013-05-05 19:11:00,58.0,44.6,30.16,East,101,0.0,4.0,61,0.00,,,0.00,LWC V2.11 B50,2013-05-05 23:11:00,
2013-05-05 19:16:00,57.6,44.2,30.16,East,99,1.0,5.0,61,0.00,,,0.00,LWC V2.11 B50,2013-05-05 23:16:00,
2013-05-05 19:21:00,57.1,44.6,30.16,ESE,111,0.0,0.0,63,0.00,,,0.00,LWC V2.11 B50,2013-05-05 23:21:00,
2013-05-05 19:26:00,56.7,44.2,30.16,ENE,70,0.0,3.0,63,0.00,,,0.00,LWC V2.11 B50,2013-05-05 23:26:00,
2013-05-05 19:31:00,56.3,44.3,30.16,East,97,2.0,3.0,64,0.00,,,0.00,LWC V2.11 B50,2013-05-05 23:31:00,
2013-05-05 19:36:00,56.0,44.4,30.17,East,96,0.0,0.0,65,0.00,,,0.00,LWC V2.11 B50,2013-05-05 23:36:00,
2013-05-05 19:41:00,55.6,44.4,30.17,East,90,0.0,0.0,66,0.00,,,0.00,LWC V2.11 B50,2013-05-05 23:41:00,
2013-05-05 19:46:00,55.2,44.0,30.17,East,90,0.0,0.0,66,0.00,,,0.00,LWC V2.11 B50,2013-05-05 23:46:00,
2013-05-05 19:51:00,54.9,44.1,30.17,East,90,0.0,0.0,67,0.00,,,0.00,LWC V2.11 B50,2013-05-05 23:51:00,
2013-05-05 19:56:00,54.5,44.2,30.17,East,90,0.0,0.0,68,0.00,,,0.00,LWC V2.11 B50,2013-05-05 23:56:00,
2013-05-05 20:01:00,54.2,43.9,30.17,East,90,0.0,0.0,68,0.00,,,0.00,LWC V2.11 B50,2013-05-06 00:01:00,
2013-05-05 20:06:00,53.9,44.0,30.17,East,90,0.0,0.0,69,0.00,,,0.00,LWC V2.11 B50,2013-05-06 00:06:00,
2013-05-05 20:11:00,53.6,44.1,30.17,East,90,0.0,0.0,70,0.00,,,0.00,LWC V2.11 B50,2013-05-06 00:11:00,
2013-05-05 20:16:00,53.3,43.8,30.17,East,90,0.0,0.0,70,0.00,,,0.00,LWC V2.11 B50,2013-05-06 00:16:00,
2013-05-05 20:21:00,53.0,43.9,30.17,East,90,0.0,0.0,71,0.00,,,0.00,LWC V2.11 B50,2013-05-06 00:21:00,
2013-05-05 20:26:00,52.7,43.9,30.17,East,90,0.0,0.0,72,0.00,,,0.00,LWC V2.11 B50,2013-05-06 00:26:00,
2013-05-05 20:31:00,52.5,43.7,30.17,East,90,0.0,0.0,72,0.00,,,0.00,LWC V2.11 B50,2013-05-06 00:31:00,
2013-05-05 20:36:00,52.2,43.8,30.17,East,90,0.0,0.0,73,0.00,,,0.00,LWC V2.11 B50,2013-05-06 00:36:00,
2013-05-05 20:41:00,51.9,43.5,30.17,East,90,0.0,0.0,73,0.00,,,0.00,LWC V2.11 B50,2013-05-06 00:41:00,
2013-05-05 20:46:00,51.6,43.6,30.17,East,90,0.0,0.0,74,0.00,,,0.00,LWC V2.11 B50,2013-05-06 00:46:00,
2013-05-05 20:51:00,51.4,43.4,30.17,East,90,0.0,0.0,74,0.00,,,0.00,LWC V2.11 B50,2013-05-06 00:51:00,
2013-05-05 20:56:00,51.2,43.6,30.17,East,90,0.0,0.0,75,0.00,,,0.00,LWC V2.11 B50,2013-05-06 00:56:00,
2013-05-05 21:01:00,51.0,43.4,30.17,East,90,0.0,0.0,75,0.00,,,0.00,LWC V2.11 B50,2013-05-06 01:01:00,
2013-05-05 21:06:00,50.9,43.6,30.18,East,90,0.0,0.0,76,0.00,,,0.00,LWC V2.11 B50,2013-05-06 01:06:00,
2013-05-05 21:11:00,50.7,43.4,30.18,East,90,0.0,0.0,76,0.00,,,0.00,LWC V2.11 B50,2013-05-06 01:11:00,
2013-05-05 21:16:00,50.6,43.3,30.18,ESE,106,0.0,0.0,76,0.00,,,0.00,LWC V2.11 B50,2013-05-06 01:16:00,
2013-05-05 21:21:00,50.5,43.2,30.18,ESE,106,0.0,0.0,76,0.00,,,0.00,LWC V2.11 B50,2013-05-06 01:21:00,
2013-05-05 21:26:00,50.3,43.0,30.18,ESE,107,0.0,0.0,76,0.00,,,0.00,LWC V2.11 B50,2013-05-06 01:26:00,
2013-05-05 21:31:00,50.2,42.9,30.18,ESE,107,0.0,0.0,76,0.00,,,0.00,LWC V2.11 B50,2013-05-06 01:31:00,
2013-05-05 21:36:00,50.1,42.8,30.17,ESE,112,0.0,0.0,76,0.00,,,0.00,LWC V2.11 B50,2013-05-06 01:36:00,
2013-05-05 21:41:00,49.9,43.0,30.18,ESE,110,0.0,0.0,77,0.00,,,0.00,LWC V2.11 B50,2013-05-06 01:41:00,
2013-05-05 21:46:00,49.7,42.8,30.18,ESE,111,0.0,0.0,77,0.00,,,0.00,LWC V2.11 B50,2013-05-06 01:46:00,
2013-05-05 21:51:00,49.5,42.6,30.18,ESE,111,0.0,0.0,77,0.00,,,0.00,LWC V2.11 B50,2013-05-06 01:51:00,
2013-05-05 21:56:00,49.3,42.4,30.18,ESE,111,0.0,0.0,77,0.00,,,0.00,LWC V2.11 B50,2013-05-06 01:56:00,
2013-05-05 22:01:00,49.1,42.5,30.18,ESE,110,0.0,0.0,78,0.00,,,0.00,LWC V2.11 B50,2013-05-06 02:01:00,
2013-05-05 22:06:00,48.8,42.2,30.18,ESE,110,0.0,0.0,78,0.00,,,0.00,LWC V2.11 B50,2013-05-06 02:06:00,
2013-05-05 22:11:00,48.6,42.1,30.18,ESE,111,0.0,0.0,78,0.00,,,0.00,LWC V2.11 B50,2013-05-06 02:11:00,
2013-05-05 22:16:00,48.4,42.2,30.17,ESE,110,0.0,0.0,79,0.00,,,0.00,LWC V2.11 B50,2013-05-06 02:16:00,
2013-05-05 22:21:00,48.1,41.9,30.17,ESE,111,0.0,0.0,79,0.00,,,0.00,LWC V2.11 B50,2013-05-06 02:21:00,
2013-05-05 22:26:00,47.8,41.9,30.17,ESE,111,0.0,0.0,80,0.00,,,0.00,LWC V2.11 B50,2013-05-06 02:26:00,
2013-05-05 22:31:00,47.5,42.0,30.17,ESE,111,0.0,0.0,81,0.00,,,0.00,LWC V2.11 B50,2013-05-06 02:31:00,
2013-05-05 22:36:00,47.2,41.7,30.17,ESE,110,0.0,0.0,81,0.00,,,0.00,LWC V2.11 B50,2013-05-06 02:36:00,
2013-05-05 22:41:00,47.0,41.8,30.17,ESE,111,0.0,0.0,82,0.00,,,0.00,LWC V2.11 B50,2013-05-06 02:41:00,
2013-05-05 22:46:00,46.9,41.7,30.17,ESE,111,0.0,0.0,82,0.00,,,0.00,LWC V2.11 B50,2013-05-06 02:46:00,
2013-05-05 22:51:00,46.7,41.5,30.17,ESE,111,0.0,0.0,82,0.00,,,0.00,LWC V2.11 B50,2013-05-06 02:51:00,
2013-05-05 22:56:00,46.5,41.3,30.17,ESE,110,0.0,0.0,82,0.00,,,0.00,LWC V2.11 B50,2013-05-06 02:56:00,
2013-05-05 23:01:00,46.3,41.4,30.17,ESE,111,0.0,0.0,83,0.00,,,0.00,LWC V2.11 B50,2013-05-06 03:01:00,
2013-05-05 23:06:00,46.0,41.1,30.17,ESE,111,0.0,0.0,83,0.00,,,0.00,LWC V2.11 B50,2013-05-06 03:06:00,
2013-05-05 23:11:00,45.8,41.2,30.17,ESE,102,0.0,1.0,84,0.00,,,0.00,LWC V2.11 B50,2013-05-06 03:11:00,
2013-05-05 23:16:00,45.9,41.3,30.17,East,95,0.0,0.0,84,0.00,,,0.00,LWC V2.11 B50,2013-05-06 03:16:00,
2013-05-05 23:21:00,45.9,41.3,30.17,East,94,0.0,0.0,84,0.00,,,0.00,LWC V2.11 B50,2013-05-06 03:21:00,
2013-05-05 23:26:00,46.0,41.4,30.18,East,96,0.0,0.0,84,0.00,,,0.00,LWC V2.11 B50,2013-05-06 03:26:00,
2013-05-05 23:31:00,45.9,41.0,30.18,East,95,0.0,0.0,83,0.00,,,0.00,LWC V2.11 B50,2013-05-06 03:31:00,
2013-05-05 23:36:00,45.9,41.0,30.18,East,95,0.0,0.0,83,0.00,,,0.00,LWC V2.11 B50,2013-05-06 03:36:00,
2013-05-05 23:41:00,45.9,41.3,30.18,East,96,0.0,0.0,84,0.00,,,0.00,LWC V2.11 B50,2013-05-06 03:41:00,
2013-05-05 23:46:00,45.8,40.9,30.18,East,96,0.0,0.0,83,0.00,,,0.00,LWC V2.11 B50,2013-05-06 03:46:00,
2013-05-05 23:51:00,45.6,40.7,30.18,East,95,0.0,0.0,83,0.00,,,0.00,LWC V2.11 B50,2013-05-06 03:51:00,
2013-05-05 23:56:00,45.5,40.6,30.18,East,96,0.0,0.0,83,0.00,,,0.00,LWC V2.11 B50,2013-05-06 03:56:00,